Time;durP1;ratioP1;P1;durP2;ratioP2;P2;SDS_P1;SDS_P2;PMS_P1;PMS_P2;Temp;Humidity;BMP_temperature;BMP_pressure;BME280_temperature;BME280_humidity;BME280_pressure;Samples;Min_cycle;Max_cycle;Signal;HPM_P1;HPM_P2
2023/02/06 00:00:37;;;;;;;53.35;8.57;;;5.50;97.20;;;;;;5034086;28;20076;-72
2023/02/06 00:03:04;;;;;;;50.53;9.45;;;5.50;97.20;;;;;;5033369;28;20033;-72
2023/02/06 00:05:30;;;;;;;48.47;7.03;;;5.50;97.20;;;;;;5030095;28;20029;-74
2023/02/06 00:07:56;;;;;;;52.45;9.20;;;5.50;97.20;;;;;;5031819;28;20527;-72
2023/02/06 00:10:23;;;;;;;51.17;7.03;;;5.50;97.10;;;;;;5036523;28;20029;-71
2023/02/06 00:12:49;;;;;;;57.88;10.85;;;5.50;97.10;;;;;;5037282;28;20033;-71
2023/02/06 00:15:15;;;;;;;54.90;8.85;;;5.50;97.10;;;;;;5036531;28;20025;-72
2023/02/06 00:17:40;;;;;;;49.58;7.68;;;5.50;97.00;;;;;;5036673;28;20491;-71
2023/02/06 00:20:07;;;;;;;57.97;8.77;;;5.40;97.00;;;;;;5050539;28;20071;-72
2023/02/06 00:22:34;;;;;;;53.67;7.80;;;5.40;97.00;;;;;;5049870;28;20144;-72
2023/02/06 00:24:59;;;;;;;42.60;7.63;;;5.40;96.90;;;;;;5046643;28;20029;-71
2023/02/06 00:27:25;;;;;;;46.30;8.45;;;5.40;97.00;;;;;;5050533;28;20056;-71
2023/02/06 00:29:51;;;;;;;49.53;8.23;;;5.30;97.10;;;;;;5049201;28;20036;-71
2023/02/06 00:32:16;;;;;;;53.03;9.07;;;5.30;97.20;;;;;;5050712;28;20405;-72
2023/02/06 00:34:42;;;;;;;48.97;7.60;;;5.30;97.20;;;;;;5050426;28;20027;-72
2023/02/06 00:37:08;;;;;;;55.45;8.55;;;5.30;97.20;;;;;;5050714;28;20025;-72
2023/02/06 00:39:34;;;;;;;48.15;8.70;;;5.20;97.20;;;;;;5050821;28;20708;-71
2023/02/06 00:41:59;;;;;;;45.83;9.57;;;5.20;97.20;;;;;;5049885;28;20029;-72
2023/02/06 00:44:25;;;;;;;55.55;8.43;;;5.20;97.20;;;;;;5036714;28;20029;-72
2023/02/06 00:46:51;;;;;;;43.45;7.45;;;5.20;97.20;;;;;;5051173;28;20502;-72
2023/02/06 00:49:16;;;;;;;45.40;8.02;;;5.20;97.20;;;;;;5051415;28;20071;-72
2023/02/06 00:51:42;;;;;;;49.17;7.25;;;5.20;97.20;;;;;;5051695;28;20052;-72
2023/02/06 00:54:08;;;;;;;51.42;8.82;;;5.20;97.30;;;;;;5051409;28;20104;-72
2023/02/06 00:56:34;;;;;;;49.67;9.07;;;5.20;97.30;;;;;;5050422;28;20045;-72
2023/02/06 00:58:59;;;;;;;40.47;7.07;;;5.20;97.40;;;;;;5051345;28;20083;-71
2023/02/06 01:01:26;;;;;;;47.60;8.35;;;5.20;97.40;;;;;;5051152;28;20538;-70
2023/02/06 01:03:52;;;;;;;55.90;8.00;;;5.20;97.30;;;;;;5041377;28;20079;-74
2023/02/06 01:06:18;;;;;;;55.63;7.43;;;5.20;97.40;;;;;;5045171;28;20028;-71
2023/02/06 01:08:44;;;;;;;46.53;7.57;;;5.20;97.30;;;;;;5050216;28;20025;-71
2023/02/06 01:11:16;;;;;;;51.20;7.32;;;5.10;97.20;;;;;;5050734;28;20468;-71
2023/02/06 01:13:43;;;;;;;44.00;6.90;;;5.10;97.20;;;;;;5049480;28;20028;-71
2023/02/06 01:16:11;;;;;;;47.97;8.77;;;5.10;97.20;;;;;;5050811;28;20029;-72
2023/02/06 01:18:37;;;;;;;41.67;7.05;;;5.10;97.20;;;;;;5050876;28;20029;-72
2023/02/06 01:21:08;;;;;;;48.70;7.43;;;5.10;97.20;;;;;;5049421;28;20539;-73
2023/02/06 01:23:36;;;;;;;47.45;8.18;;;5.10;97.30;;;;;;5051277;28;20032;-72
2023/02/06 01:26:11;;;;;;;43.25;7.25;;;5.10;97.30;;;;;;5050001;28;20061;-71
2023/02/06 01:28:41;;;;;;;41.38;7.72;;;5.10;97.50;;;;;;5050600;28;20510;-72
2023/02/06 01:31:10;;;;;;;46.35;7.93;;;5.10;97.60;;;;;;5035807;28;20151;-73
2023/02/06 01:33:35;;;;;;;53.13;7.65;;;5.00;97.60;;;;;;5038263;28;20021;-72
2023/02/06 01:36:01;;;;;;;57.17;8.88;;;5.00;97.60;;;;;;5048137;28;20087;-73
2023/02/06 01:38:27;;;;;;;44.50;7.72;;;5.10;97.60;;;;;;5050815;28;20024;-73
2023/02/06 01:40:57;;;;;;;41.92;8.70;;;5.10;97.70;;;;;;5049572;28;20037;-73
2023/02/06 01:43:24;;;;;;;;;;;5.10;97.70;;;;;;5051344;28;20027;-72
2023/02/06 01:45:50;;;;;;;35.47;6.55;;;5.10;97.70;;;;;;5044715;28;20286;-72
2023/02/06 01:48:27;;;;;;;45.20;8.20;;;5.10;97.70;;;;;;5050159;28;20029;-71
2023/02/06 01:50:55;;;;;;;39.33;6.00;;;5.10;97.80;;;;;;5044129;28;20128;-71
2023/02/06 01:53:22;;;;;;;56.20;8.95;;;5.10;97.90;;;;;;5050303;28;20013;-72
2023/02/06 01:55:50;;;;;;;47.70;6.95;;;5.10;98.10;;;;;;5050776;28;20437;-71
2023/02/06 01:58:23;;;;;;;46.28;7.00;;;5.10;98.20;;;;;;5049466;28;20032;-71
2023/02/06 02:00:49;;;;;;;47.00;8.07;;;5.10;98.30;;;;;;5050451;28;20126;-71
2023/02/06 02:03:16;;;;;;;35.72;7.00;;;5.10;98.40;;;;;;5048210;28;20078;-72
2023/02/06 02:05:46;;;;;;;36.08;7.28;;;5.10;98.50;;;;;;5050413;28;20027;-72
2023/02/06 02:08:21;;;;;;;;;;;5.10;98.50;;;;;;5048780;28;20465;-71
2023/02/06 02:10:47;;;;;;;44.25;7.35;;;5.20;98.70;;;;;;5048609;28;20294;-72
2023/02/06 02:13:12;;;;;;;48.60;8.07;;;5.20;98.60;;;;;;5049995;28;20027;-72
2023/02/06 02:15:59;;;;;;;41.65;7.22;;;5.20;98.60;;;;;;5049817;28;20021;-72
2023/02/06 02:18:36;;;;;;;41.88;8.30;;;5.20;98.60;;;;;;5050219;28;20027;-72
2023/02/06 02:21:24;;;;;;;43.67;7.90;;;5.20;98.60;;;;;;5049929;28;20033;-72
2023/02/06 02:24:10;;;;;;;36.22;7.43;;;5.30;98.50;;;;;;5050005;28;20025;-72
2023/02/06 02:26:44;;;;;;;41.67;7.32;;;5.30;98.40;;;;;;5049239;28;20161;-72
2023/02/06 02:29:16;;;;;;;33.97;6.05;;;5.30;98.50;;;;;;5049319;28;20033;-71
2023/02/06 02:31:50;;;;;;;35.35;6.93;;;5.30;98.50;;;;;;5037417;28;20033;-71
2023/02/06 02:34:30;;;;;;;42.75;6.15;;;5.30;98.60;;;;;;5048208;28;20025;-72
2023/02/06 02:37:21;;;;;;;41.58;6.70;;;5.30;98.70;;;;;;5043014;28;20036;-71
2023/02/06 02:40:00;;;;;;;48.70;6.85;;;5.30;98.70;;;;;;5061754;28;20542;-72
2023/02/06 02:42:57;;;;;;;46.42;7.35;;;5.30;98.60;;;;;;5048502;28;20056;-72
2023/02/06 02:45:31;;;;;;;31.92;5.82;;;5.40;98.60;;;;;;5038264;28;20029;-72
2023/02/06 02:48:06;;;;;;;53.88;8.52;;;5.30;98.60;;;;;;5049299;28;20024;-71
2023/02/06 02:50:34;;;;;;;42.97;7.40;;;5.40;98.70;;;;;;5047763;28;20029;-72
2023/02/06 02:53:02;;;;;;;52.22;8.75;;;5.40;98.70;;;;;;5048863;28;20021;-72
2023/02/06 02:55:27;;;;;;;37.15;6.43;;;5.40;98.70;;;;;;5049193;28;20025;-72
2023/02/06 02:58:03;;;;;;;30.58;5.72;;;5.40;98.70;;;;;;5049141;28;20029;-72
2023/02/06 03:00:32;;;;;;;47.22;6.93;;;5.40;98.70;;;;;;5048177;28;20048;-72
2023/02/06 03:02:58;;;;;;;34.90;6.05;;;5.50;98.70;;;;;;5048857;28;20033;-72
2023/02/06 03:05:25;;;;;;;50.92;7.28;;;5.50;98.60;;;;;;5061251;28;20556;-72
2023/02/06 03:08:42;;;;;;;41.83;6.80;;;5.50;98.60;;;;;;5048061;28;20028;-71
2023/02/06 03:11:13;;;;;;;38.08;7.15;;;5.50;98.50;;;;;;5065507;28;20090;-72
2023/02/06 03:13:39;;;;;;;42.60;7.28;;;5.60;98.50;;;;;;5066336;28;20430;-72
2023/02/06 03:16:22;;;;;;;37.88;6.15;;;5.50;98.50;;;;;;5055798;28;20098;-71
2023/02/06 03:19:03;;;;;;;47.53;8.82;;;5.60;98.50;;;;;;5049190;28;20024;-72
2023/02/06 03:21:31;;;;;;;32.85;4.78;;;5.60;98.50;;;;;;5046330;28;20032;-72
2023/02/06 03:24:00;;;;;;;37.08;6.72;;;5.60;98.50;;;;;;5036789;28;20035;-72
2023/02/06 03:26:29;;;;;;;38.78;6.25;;;5.60;98.50;;;;;;5047915;28;20057;-72
2023/02/06 03:29:01;;;;;;;40.67;5.88;;;5.60;98.50;;;;;;5049306;28;20510;-72
2023/02/06 03:31:33;;;;;;;46.72;6.22;;;5.60;98.40;;;;;;5047760;28;20127;-72
2023/02/06 03:34:21;;;;;;;43.72;7.65;;;5.70;98.40;;;;;;5046913;28;20024;-73
2023/02/06 03:36:48;;;;;;;42.17;6.75;;;5.60;98.40;;;;;;5056613;28;20028;-73
2023/02/06 03:39:14;;;;;;;39.50;6.32;;;5.70;98.40;;;;;;5047911;28;20029;-71
2023/02/06 03:41:42;;;;;;;48.97;5.95;;;5.70;98.30;;;;;;5049308;28;20437;-72
2023/02/06 03:44:12;;;;;;;32.05;5.93;;;5.70;98.20;;;;;;5049519;28;20024;-72
2023/02/06 03:46:39;;;;;;;42.83;7.97;;;5.70;98.10;;;;;;5047142;28;20108;-71
2023/02/06 03:49:08;;;;;;;36.72;6.88;;;5.70;98.00;;;;;;5048301;28;20033;-72
2023/02/06 03:51:43;;;;;;;57.00;7.13;;;5.70;97.90;;;;;;5048986;28;20017;-72
2023/02/06 03:54:10;;;;;;;48.70;6.40;;;5.70;97.80;;;;;;5048087;28;20505;-72
2023/02/06 03:56:51;;;;;;;33.80;6.60;;;5.60;97.70;;;;;;5049500;28;20552;-71
2023/02/06 03:59:17;;;;;;;43.63;6.07;;;5.60;97.70;;;;;;5047895;28;20056;-71
2023/02/06 04:01:46;;;;;;;31.75;6.38;;;5.60;97.70;;;;;;5047583;28;20059;-72
2023/02/06 04:04:27;;;;;;;36.67;5.93;;;5.50;97.70;;;;;;5048499;28;20421;-72
2023/02/06 04:07:11;;;;;;;41.88;7.07;;;5.50;97.70;;;;;;5048286;28;20082;-71
2023/02/06 04:09:38;;;;;;;35.67;6.78;;;5.50;97.70;;;;;;5048126;28;20390;-70
2023/02/06 04:12:03;;;;;;;36.83;7.05;;;5.50;97.70;;;;;;5044765;28;20117;-71
2023/02/06 04:14:29;;;;;;;45.33;7.50;;;5.50;97.70;;;;;;5048760;28;20431;-72
2023/02/06 04:16:55;;;;;;;39.00;6.78;;;5.50;97.70;;;;;;5048086;28;20530;-71
2023/02/06 04:19:20;;;;;;;36.75;6.80;;;5.40;97.70;;;;;;5048439;28;20044;-72
2023/02/06 04:21:46;;;;;;;41.50;6.57;;;5.40;97.70;;;;;;5045870;28;20035;-71
2023/02/06 04:24:11;;;;;;;47.03;6.55;;;5.40;97.80;;;;;;5042029;28;20083;-71
2023/02/06 04:26:37;;;;;;;47.53;6.43;;;5.40;97.80;;;;;;5043616;28;20037;-71
2023/02/06 04:29:03;;;;;;;45.33;7.57;;;5.40;97.70;;;;;;5047545;28;20021;-72
2023/02/06 04:31:28;;;;;;;38.25;7.03;;;5.40;97.80;;;;;;5040994;28;20084;-71
2023/02/06 04:33:54;;;;;;;40.22;6.72;;;5.40;97.70;;;;;;5047804;28;20100;-72
2023/02/06 04:36:20;;;;;;;40.72;6.78;;;5.40;97.60;;;;;;5047866;28;20047;-73
2023/02/06 04:38:45;;;;;;;29.67;5.72;;;5.40;97.60;;;;;;5044865;28;20426;-72
2023/02/06 04:41:11;;;;;;;37.35;6.50;;;5.40;97.50;;;;;;5048093;28;20033;-71
2023/02/06 04:43:36;;;;;;;35.63;5.85;;;5.40;97.60;;;;;;5047660;28;20072;-70
2023/02/06 04:46:03;;;;;;;29.40;5.88;;;5.40;97.60;;;;;;5047047;28;20025;-72
2023/02/06 04:48:29;;;;;;;35.10;5.95;;;5.30;97.70;;;;;;5047212;28;20433;-72
2023/02/06 04:50:55;;;;;;;28.40;5.43;;;5.30;97.70;;;;;;5047417;28;20021;-72
2023/02/06 04:53:20;;;;;;;23.98;5.53;;;5.30;97.60;;;;;;5046030;28;20028;-72
2023/02/06 04:55:46;;;;;;;36.63;5.85;;;5.30;97.60;;;;;;5039263;28;20126;-71
2023/02/06 04:58:13;;;;;;;40.58;6.30;;;5.20;97.60;;;;;;5038165;28;20029;-71
2023/02/06 05:00:38;;;;;;;38.50;5.82;;;5.30;97.70;;;;;;5051029;28;20060;-71
2023/02/06 05:03:04;;;;;;;31.30;5.68;;;5.20;97.80;;;;;;5041354;28;20052;-71
2023/02/06 05:05:30;;;;;;;33.47;6.53;;;5.20;97.90;;;;;;5051549;28;20024;-72
2023/02/06 05:07:55;;;;;;;32.80;5.35;;;5.20;97.90;;;;;;5049858;28;20040;-71
2023/02/06 05:10:21;;;;;;;32.55;4.72;;;5.20;97.90;;;;;;5046515;28;20021;-71
2023/02/06 05:12:49;;;;;;;31.48;5.78;;;5.20;98.00;;;;;;5050173;28;20503;-71
2023/02/06 05:15:16;;;;;;;33.15;5.65;;;5.20;98.10;;;;;;5048535;28;20476;-71
2023/02/06 05:17:42;;;;;;;28.90;5.68;;;5.20;98.20;;;;;;5050118;28;20081;-72
2023/02/06 05:20:08;;;;;;;38.15;5.80;;;5.20;98.30;;;;;;5049775;28;20112;-71
2023/02/06 05:22:35;;;;;;;30.77;5.63;;;5.30;98.30;;;;;;5048903;28;20028;-71
2023/02/06 05:25:00;;;;;;;40.15;5.97;;;5.30;98.20;;;;;;5049401;28;20027;-70
2023/02/06 05:27:26;;;;;;;35.05;5.93;;;5.30;98.20;;;;;;5047209;28;20057;-71
2023/02/06 05:29:51;;;;;;;33.88;8.25;;;5.30;98.20;;;;;;5046234;28;20029;-71
2023/02/06 05:32:18;;;;;;;34.92;5.32;;;5.30;98.20;;;;;;5047142;28;20017;-71
2023/02/06 05:34:44;;;;;;;31.58;4.93;;;5.20;98.20;;;;;;5047018;28;20021;-72
2023/02/06 05:37:10;;;;;;;39.92;6.28;;;5.20;98.60;;;;;;5043947;28;20083;-71
2023/02/06 05:39:35;;;;;;;29.40;4.72;;;5.20;98.40;;;;;;5046438;28;20037;-71
2023/02/06 05:42:01;;;;;;;29.00;5.28;;;5.20;98.40;;;;;;5046550;28;20487;-72
2023/02/06 05:44:27;;;;;;;22.30;5.45;;;5.20;98.40;;;;;;5047504;28;20017;-71
2023/02/06 05:46:53;;;;;;;33.17;5.60;;;5.20;98.30;;;;;;5047512;28;20032;-71
2023/02/06 05:49:18;;;;;;;17.73;3.78;;;5.20;98.20;;;;;;5046649;28;20072;-72
2023/02/06 05:51:44;;;;;;;30.20;5.43;;;5.10;98.10;;;;;;5050054;28;20027;-71
2023/02/06 05:54:09;;;;;;;28.67;4.53;;;5.20;98.10;;;;;;5049114;28;20068;-70
2023/02/06 05:56:35;;;;;;;33.85;5.25;;;5.20;98.00;;;;;;5049116;28;20033;-72
2023/02/06 05:59:01;;;;;;;26.38;5.82;;;5.20;98.00;;;;;;5049273;28;20025;-71
2023/02/06 06:01:28;;;;;;;16.80;3.67;;;5.20;98.00;;;;;;5048939;28;20028;-72
2023/02/06 06:03:54;;;;;;;19.42;3.90;;;5.20;98.00;;;;;;5049342;28;20024;-71
2023/02/06 06:06:19;;;;;;;21.45;4.60;;;5.20;97.90;;;;;;5049357;28;20112;-72
2023/02/06 06:08:45;;;;;;;21.95;3.70;;;5.20;97.80;;;;;;5044732;28;20108;-72
2023/02/06 06:11:11;;;;;;;20.80;3.75;;;5.20;97.80;;;;;;5048631;28;20028;-71
2023/02/06 06:13:36;;;;;;;18.30;3.60;;;5.20;97.70;;;;;;5047312;28;20021;-71
2023/02/06 06:16:02;;;;;;;17.70;3.75;;;5.20;97.60;;;;;;5048955;28;20017;-71
2023/02/06 06:18:28;;;;;;;15.70;3.72;;;5.20;97.60;;;;;;5046126;28;20029;-71
2023/02/06 06:20:54;;;;;;;15.20;4.05;;;5.20;97.60;;;;;;5049257;28;20383;-71
2023/02/06 06:23:19;;;;;;;16.35;4.78;;;5.20;97.60;;;;;;5048722;28;20076;-71
2023/02/06 06:25:46;;;;;;;21.23;4.00;;;5.20;97.60;;;;;;5044300;28;20141;-72
2023/02/06 06:28:13;;;;;;;18.55;4.95;;;5.20;97.50;;;;;;5048866;28;20041;-71
2023/02/06 06:30:39;;;;;;;16.20;4.65;;;5.10;97.70;;;;;;5049553;28;20518;-72
2023/02/06 06:33:04;;;;;;;19.80;5.03;;;5.10;97.80;;;;;;5049413;28;20010;-71
2023/02/06 06:35:30;;;;;;;22.40;4.18;;;5.10;97.90;;;;;;5047665;28;20028;-72
2023/02/06 06:37:56;;;;;;;18.02;3.75;;;5.10;98.00;;;;;;5047633;28;20047;-71
2023/02/06 06:40:22;;;;;;;16.02;3.45;;;5.10;98.10;;;;;;5047893;28;20041;-72
2023/02/06 06:42:47;;;;;;;18.60;3.22;;;5.10;98.10;;;;;;5048241;28;20356;-72
2023/02/06 06:45:13;;;;;;;13.55;3.50;;;5.10;98.30;;;;;;5046118;28;20232;-71
2023/02/06 06:47:38;;;;;;;14.82;3.67;;;5.00;98.40;;;;;;5049031;28;20027;-72
2023/02/06 06:50:05;;;;;;;19.05;3.58;;;5.10;98.50;;;;;;5045358;28;20556;-71
2023/02/06 06:52:31;;;;;;;21.98;4.13;;;5.10;98.90;;;;;;5047409;28;20394;-71
2023/02/06 06:54:56;;;;;;;40.55;20.48;;;5.10;98.60;;;;;;5047373;28;20021;-71
2023/02/06 06:57:22;;;;;;;82.50;44.67;;;5.10;98.70;;;;;;5048035;28;20025;-72
2023/02/06 06:59:48;;;;;;;67.45;36.00;;;5.10;98.70;;;;;;5044476;28;20031;-73
2023/02/06 07:02:14;;;;;;;125.28;70.35;;;5.10;98.70;;;;;;5044214;28;20100;-72
2023/02/06 07:04:40;;;;;;;87.90;46.00;;;5.20;98.70;;;;;;5047054;28;20021;-72
2023/02/06 07:07:05;;;;;;;67.85;36.92;;;5.20;98.70;;;;;;5047358;28;20079;-71
2023/02/06 07:09:31;;;;;;;49.25;24.70;;;5.20;98.70;;;;;;5046350;28;20495;-71
2023/02/06 07:11:57;;;;;;;26.50;9.68;;;5.20;98.70;;;;;;5046272;28;20024;-72
2023/02/06 07:14:22;;;;;;;26.80;5.65;;;5.20;98.80;;;;;;5046929;28;20107;-71
2023/02/06 07:16:48;;;;;;;22.50;5.43;;;5.10;98.90;;;;;;5047351;28;20025;-71
2023/02/06 07:19:14;;;;;;;24.27;4.85;;;5.20;99.00;;;;;;5046503;28;20512;-73
2023/02/06 07:21:41;;;;;;;23.92;4.40;;;5.20;99.10;;;;;;5042809;28;20071;-72
2023/02/06 07:24:06;;;;;;;19.17;4.82;;;5.20;99.10;;;;;;5046267;28;20029;-73
2023/02/06 07:26:32;;;;;;;19.35;4.13;;;5.30;99.20;;;;;;5048420;28;20434;-72
2023/02/06 07:28:58;;;;;;;18.05;4.45;;;5.20;99.20;;;;;;5048146;28;20032;-71
2023/02/06 07:31:23;;;;;;;10.90;2.80;;;5.30;99.20;;;;;;5045210;28;20093;-71
2023/02/06 07:33:49;;;;;;;24.00;3.25;;;5.20;99.20;;;;;;5037007;28;20071;-72
2023/02/06 07:36:17;;;;;;;19.20;3.67;;;5.30;99.30;;;;;;5047224;28;20074;-72
2023/02/06 07:38:43;;;;;;;11.88;4.05;;;5.30;99.40;;;;;;5039969;28;20044;-71
2023/02/06 07:41:09;;;;;;;19.40;4.15;;;5.40;99.40;;;;;;5042311;28;20415;-72
2023/02/06 07:43:34;;;;;;;12.82;4.30;;;5.40;99.30;;;;;;5046610;28;20087;-71
2023/02/06 07:46:04;;;;;;;16.45;4.63;;;5.50;99.30;;;;;;5045375;28;20052;-72
2023/02/06 07:48:30;;;;;;;13.05;3.67;;;5.50;99.20;;;;;;5039815;28;20030;-72
2023/02/06 07:51:02;;;;;;;19.10;3.13;;;5.50;99.20;;;;;;5044384;28;20086;-71
2023/02/06 07:53:28;;;;;;;15.60;4.13;;;5.50;99.10;;;;;;5046216;28;20017;-71
2023/02/06 07:55:53;;;;;;;19.67;4.13;;;5.50;99.10;;;;;;5047452;28;20025;-73
2023/02/06 07:58:19;;;;;;;12.90;3.17;;;5.50;99.10;;;;;;5046713;28;20033;-72
2023/02/06 08:00:45;;;;;;;17.50;3.42;;;5.50;99.20;;;;;;5043904;28;20032;-70
2023/02/06 08:03:10;;;;;;;14.00;3.75;;;5.50;99.40;;;;;;5046875;28;20055;-72
2023/02/06 08:05:38;;;;;;;13.43;3.42;;;5.50;99.40;;;;;;5045125;28;20041;-73
2023/02/06 08:08:04;;;;;;;22.08;4.30;;;5.60;99.40;;;;;;5046292;28;20028;-72
2023/02/06 08:10:30;;;;;;;10.82;3.90;;;5.60;99.40;;;;;;5044463;28;20876;-73
2023/02/06 08:12:56;;;;;;;19.20;3.63;;;5.70;99.40;;;;;;5046163;28;20025;-71
2023/02/06 08:15:21;;;;;;;19.30;4.18;;;5.80;99.30;;;;;;5044699;28;20074;-71
2023/02/06 08:17:47;;;;;;;21.33;5.35;;;5.80;99.20;;;;;;5043039;28;20098;-72
2023/02/06 08:20:13;;;;;;;17.13;3.70;;;5.90;99.20;;;;;;5046623;28;20032;-70
2023/02/06 08:22:38;;;;;;;18.05;5.35;;;6.00;99.10;;;;;;5043869;28;20442;-72
2023/02/06 08:25:04;;;;;;;23.40;5.07;;;6.00;99.10;;;;;;5046399;28;20029;-71
2023/02/06 08:27:31;;;;;;;23.50;4.70;;;6.10;99.10;;;;;;5047048;28;20045;-72
2023/02/06 08:29:58;;;;;;;25.98;5.50;;;6.10;99.20;;;;;;5047508;28;20040;-72
2023/02/06 08:32:32;;;;;;;29.67;6.80;;;6.10;99.10;;;;;;5034937;28;20036;-71
2023/02/06 08:34:59;;;;;;;26.02;4.95;;;6.20;99.20;;;;;;5035787;28;20017;-70
2023/02/06 08:37:26;;;;;;;22.77;5.15;;;6.20;99.20;;;;;;5049625;28;20025;-72
2023/02/06 08:39:51;;;;;;;18.58;4.30;;;6.30;99.20;;;;;;5049455;28;20112;-71
2023/02/06 08:42:17;;;;;;;19.60;3.92;;;6.30;99.10;;;;;;5050436;28;20108;-71
2023/02/06 08:44:43;;;;;;;20.70;4.40;;;6.40;99.10;;;;;;5045519;28;20101;-70
2023/02/06 08:47:08;;;;;;;22.90;4.78;;;6.40;99.10;;;;;;5050311;28;20041;-70
2023/02/06 08:49:35;;;;;;;23.27;3.78;;;6.50;99.10;;;;;;5048917;28;20442;-70
2023/02/06 08:52:00;;;;;;;27.08;4.90;;;6.50;98.90;;;;;;5049168;28;20064;-71
2023/02/06 08:54:26;;;;;;;19.95;4.13;;;6.50;98.80;;;;;;5051358;28;20057;-71
2023/02/06 08:56:52;;;;;;;19.23;4.30;;;6.60;98.70;;;;;;5050789;28;20075;-70
2023/02/06 08:59:18;;;;;;;18.15;4.75;;;6.60;98.50;;;;;;5050475;28;20029;-71
2023/02/06 09:01:45;;;;;;;16.98;5.00;;;6.60;98.50;;;;;;5046628;28;20033;-72
2023/02/06 09:04:12;;;;;;;18.77;4.18;;;6.60;98.50;;;;;;5050457;28;20483;-72
2023/02/06 09:06:44;;;;;;;23.20;4.70;;;6.70;98.60;;;;;;5049150;28;20585;-72
2023/02/06 09:09:10;;;;;;;16.98;4.40;;;6.80;98.70;;;;;;5050660;28;20079;-71
2023/02/06 09:11:36;;;;;;;21.83;5.75;;;6.90;98.60;;;;;;5050762;28;20033;-71
2023/02/06 09:14:04;;;;;;;22.08;6.25;;;7.00;98.40;;;;;;5041071;28;20025;-71
2023/02/06 09:16:33;;;;;;;32.50;7.35;;;7.10;98.70;;;;;;5044162;28;20021;-71
2023/02/06 09:19:00;;;;;;;26.55;7.05;;;7.10;98.30;;;;;;5049742;28;20109;-70
2023/02/06 09:21:31;;;;;;;27.38;5.30;;;7.20;98.10;;;;;;5049503;28;20031;-70
2023/02/06 09:23:59;;;;;;;19.67;5.03;;;7.30;97.90;;;;;;5045480;28;20031;-70
2023/02/06 09:26:28;;;;;;;18.15;4.00;;;7.40;97.70;;;;;;5033593;28;20409;-70
2023/02/06 09:28:56;;;;;;;18.13;3.63;;;7.60;97.50;;;;;;5049819;28;20013;-71
2023/02/06 09:31:26;;;;;;;20.27;5.20;;;7.60;97.30;;;;;;5049573;28;20032;-72
2023/02/06 09:33:53;;;;;;;24.05;6.00;;;7.60;97.10;;;;;;5048622;28;20431;-71
2023/02/06 09:36:20;;;;;;;18.55;5.32;;;7.70;97.00;;;;;;5049578;28;20033;-71
2023/02/06 09:38:48;;;;;;;16.98;4.43;;;7.80;97.20;;;;;;5049517;28;20035;-71
2023/02/06 09:41:23;;;;;;;19.90;4.55;;;8.10;97.20;;;;;;5047909;28;20033;-71
2023/02/06 09:44:04;;;;;;;14.88;3.38;;;8.20;96.90;;;;;;5045689;28;20037;-71
2023/02/06 09:46:32;;;;;;;13.00;3.00;;;8.60;97.00;;;;;;5045650;28;20064;-70
2023/02/06 09:49:04;;;;;;;21.65;3.90;;;8.70;97.40;;;;;;5048326;28;20017;-72
2023/02/06 09:51:39;;;;;;;22.00;4.72;;;8.90;96.20;;;;;;5047067;28;20025;-72
2023/02/06 09:54:18;;;;;;;18.08;4.88;;;9.00;95.30;;;;;;5046389;28;20039;-72
2023/02/06 09:56:58;;;;;;;25.90;9.38;;;9.20;94.90;;;;;;5044763;28;20086;-72
2023/02/06 09:59:34;;;;;;;17.77;3.75;;;9.30;94.50;;;;;;5047345;28;20029;-72
2023/02/06 10:02:06;;;;;;;21.27;4.75;;;9.30;93.90;;;;;;5047298;28;20021;-73
2023/02/06 10:05:03;;;;;;;22.25;4.65;;;9.30;94.00;;;;;;5046322;28;20010;-73
2023/02/06 10:07:47;;;;;;;23.70;4.75;;;9.40;93.50;;;;;;5049156;28;20529;-73
2023/02/06 10:10:19;;;;;;;20.95;4.85;;;9.50;93.80;;;;;;5048321;28;20511;-73
2023/02/06 10:13:01;;;;;;;16.35;3.38;;;9.60;93.50;;;;;;5049005;28;20103;-71
2023/02/06 10:15:38;;;;;;;15.05;3.80;;;9.70;93.30;;;;;;5047626;28;20032;-73
2023/02/06 10:18:21;;;;;;;30.17;5.20;;;9.80;93.70;;;;;;5047385;28;20358;-74
2023/02/06 10:21:01;;;;;;;18.30;4.10;;;9.90;93.10;;;;;;5047356;28;20032;-73
2023/02/06 10:23:46;;;;;;;17.58;3.80;;;10.10;92.70;;;;;;5047749;28;20028;-72
2023/02/06 10:26:17;;;;;;;22.15;5.07;;;10.40;92.80;;;;;;5046980;28;20506;-72
2023/02/06 10:28:46;;;;;;;24.67;4.30;;;10.50;92.50;;;;;;5048738;28;20100;-72
2023/02/06 10:31:18;;;;;;;30.73;5.10;;;10.70;92.30;;;;;;5048905;28;20103;-72
2023/02/06 10:34:05;;;;;;;16.35;4.03;;;10.70;91.60;;;;;;5048136;28;20017;-72
2023/02/06 10:36:50;;;;;;;20.10;3.22;;;10.80;92.00;;;;;;5062895;28;20032;-73
2023/02/06 10:39:49;;;;;;;19.77;4.10;;;10.80;90.90;;;;;;5047264;28;20503;-72
2023/02/06 10:42:18;;;;;;;16.65;3.72;;;10.70;91.30;;;;;;5045316;28;20048;-73
2023/02/06 10:45:06;;;;;;;15.98;3.00;;;10.80;93.00;;;;;;5048548;28;20468;-73
2023/02/06 10:47:44;;;;;;;18.27;4.68;;;10.80;93.10;;;;;;5044519;28;20048;-72
2023/02/06 10:50:23;;;;;;;21.50;4.43;;;10.60;91.10;;;;;;5047234;28;20025;-73
2023/02/06 10:52:49;;;;;;;23.07;4.77;;;10.40;91.40;;;;;;5046167;28;20024;-72
2023/02/06 10:55:23;;;;;;;14.10;3.92;;;10.40;91.50;;;;;;5045303;28;20021;-73
2023/02/06 10:58:05;;;;;;;21.75;3.90;;;10.50;91.90;;;;;;5046095;28;20021;-72
2023/02/06 11:00:31;;;;;;;22.58;5.88;;;10.50;92.10;;;;;;5047043;28;20395;-72
2023/02/06 11:03:00;;;;;;;23.02;4.45;;;10.50;91.80;;;;;;5047473;28;20090;-74
2023/02/06 11:05:28;;;;;;;28.23;5.65;;;10.70;91.80;;;;;;5047225;28;20036;-72
2023/02/06 11:07:58;;;;;;;30.52;5.57;;;10.90;91.40;;;;;;5045271;28;20122;-72
2023/02/06 11:10:25;;;;;;;23.65;4.35;;;11.00;90.90;;;;;;5045705;28;20434;-73
2023/02/06 11:13:14;;;;;;;12.70;3.45;;;11.20;90.90;;;;;;5046485;28;20063;-73
2023/02/06 11:15:58;;;;;;;20.98;3.78;;;11.50;90.60;;;;;;5042155;28;20122;-72
2023/02/06 11:18:29;;;;;;;14.63;2.95;;;11.60;90.10;;;;;;5046285;28;20423;-73
2023/02/06 11:20:54;;;;;;;21.42;4.25;;;11.80;90.80;;;;;;5045873;28;20038;-73
2023/02/06 11:23:23;;;;;;;20.92;4.78;;;11.80;92.60;;;;;;5048042;28;20025;-74
2023/02/06 11:26:13;;;;;;;21.17;4.00;;;11.70;90.00;;;;;;5047340;28;20489;-72
2023/02/06 11:28:52;;;;;;;23.95;4.80;;;11.70;87.50;;;;;;5043338;28;20032;-73
2023/02/06 11:31:20;;;;;;;39.00;5.53;;;11.60;86.30;;;;;;5044396;28;20029;-73
2023/02/06 11:33:50;;;;;;;22.45;4.90;;;11.50;86.60;;;;;;5045775;28;20025;-74
2023/02/06 11:36:37;;;;;;;15.70;3.45;;;11.50;86.20;;;;;;5046855;28;20389;-74
2023/02/06 11:39:20;;;;;;;22.40;4.38;;;11.40;86.80;;;;;;5046458;28;20024;-72
2023/02/06 11:42:02;;;;;;;18.85;3.75;;;11.40;85.90;;;;;;5045554;28;20033;-73
2023/02/06 11:44:42;;;;;;;19.25;3.33;;;11.40;86.90;;;;;;5044203;28;20155;-73
2023/02/06 11:47:26;;;;;;;21.48;4.10;;;11.50;88.80;;;;;;5044711;28;20510;-73
2023/02/06 11:49:52;;;;;;;19.60;4.60;;;11.70;86.50;;;;;;5043495;28;20036;-73
2023/02/06 11:52:28;;;;;;;19.23;4.00;;;11.90;86.90;;;;;;5047282;28;20017;-73
2023/02/06 11:55:00;;;;;;;26.10;4.38;;;12.00;85.10;;;;;;5042797;28;20062;-73
2023/02/06 11:57:26;;;;;;;11.63;2.80;;;12.00;83.30;;;;;;5041187;28;20025;-73
2023/02/06 11:59:59;;;;;;;13.88;3.25;;;12.10;84.50;;;;;;5047483;28;20037;-73
2023/02/06 12:02:31;;;;;;;19.67;3.92;;;12.10;85.20;;;;;;5046876;28;20541;-73
2023/02/06 12:05:18;;;;;;;20.38;3.97;;;12.10;82.70;;;;;;5046597;28;20090;-74
2023/02/06 12:08:04;;;;;;;23.15;3.95;;;12.00;82.00;;;;;;5043917;28;20407;-73
2023/02/06 12:10:34;;;;;;;15.10;2.50;;;11.90;81.80;;;;;;5044693;28;20480;-72
2023/02/06 12:13:06;;;;;;;;;;;11.90;84.20;;;;;;5042930;28;20018;-73
2023/02/06 12:15:42;;;;;;;18.02;3.50;;;11.80;80.90;;;;;;5044169;28;19905;-73
2023/02/06 12:18:19;;;;;;;20.20;3.78;;;11.70;80.60;;;;;;5042288;28;20056;-73
2023/02/06 12:20:55;;;;;;;21.48;4.85;;;11.70;80.80;;;;;;5043817;28;20049;-73
2023/02/06 12:23:30;;;;;;;18.00;3.28;;;11.60;81.40;;;;;;5042300;28;20502;-72
2023/02/06 12:26:00;;;;;;;15.32;3.05;;;11.60;82.40;;;;;;5042079;28;20028;-73
2023/02/06 12:28:31;;;;;;;;;;;11.50;80.30;;;;;;5045759;28;20136;-74
2023/02/06 12:31:09;;;;;;;19.88;4.32;;;11.50;80.60;;;;;;5042423;28;19917;-73
2023/02/06 12:33:44;;;;;;;16.45;3.45;;;11.60;82.90;;;;;;5054880;28;20021;-75
2023/02/06 12:36:19;;;;;;;14.30;3.38;;;11.50;82.10;;;;;;5041504;28;20421;-73
2023/02/06 12:38:57;;;;;;;16.02;2.67;;;11.60;85.00;;;;;;5044914;28;20437;-73
2023/02/06 12:42:05;;;;;;;14.18;3.33;;;11.60;86.20;;;;;;5044499;28;20033;-73
2023/02/06 12:44:47;;;;;;;18.92;4.00;;;11.70;90.10;;;;;;5041242;28;20033;-74
2023/02/06 12:47:31;;;;;;;22.95;4.35;;;11.90;83.50;;;;;;5043100;28;20475;-74
2023/02/06 12:50:10;;;;;;;16.48;3.17;;;12.00;79.80;;;;;;5043381;28;20111;-73
2023/02/06 12:52:59;;;;;;;14.00;2.95;;;12.10;80.60;;;;;;5043634;28;20459;-73
2023/02/06 12:55:30;;;;;;;20.90;3.77;;;12.40;87.20;;;;;;5045766;28;20074;-72
2023/02/06 12:57:57;;;;;;;24.08;4.53;;;12.60;80.50;;;;;;5044322;28;20021;-72
2023/02/06 13:00:54;;;;;;;15.00;3.78;;;12.90;78.80;;;;;;5046594;28;20505;-73